createdAt,value
2018-11-05T00:00:14.182Z,1010.76
2018-11-05T00:01:23.879Z,1010.77
2018-11-05T00:02:33.570Z,1010.78
2018-11-05T00:03:43.531Z,1010.7
2018-11-05T00:04:53.227Z,1010.72
2018-11-05T00:06:03.186Z,1010.72
2018-11-05T00:07:13.141Z,1010.65
2018-11-05T00:08:23.089Z,1010.66
2018-11-05T00:09:32.795Z,1010.63
2018-11-05T00:10:42.485Z,1010.62
2018-11-05T00:11:52.175Z,1010.63
2018-11-05T00:13:01.883Z,1010.62
2018-11-05T00:14:11.590Z,1010.62
2018-11-05T00:15:21.034Z,1010.53
2018-11-05T00:16:30.993Z,1010.55
2018-11-05T00:17:40.960Z,1010.57
2018-11-05T00:18:50.396Z,1010.55
2018-11-05T00:20:00.104Z,1010.58
2018-11-05T00:21:10.092Z,1010.51
2018-11-05T00:22:19.523Z,1010.51
2018-11-05T00:23:29.457Z,1010.47
2018-11-05T00:24:39.147Z,1010.46
2018-11-05T00:25:48.839Z,1010.35
2018-11-05T00:26:58.026Z,1010.37
2018-11-05T00:28:06.958Z,1010.35
2018-11-05T00:29:16.660Z,1010.34
2018-11-05T00:30:25.838Z,1010.37
2018-11-05T00:31:35.780Z,1010.32
2018-11-05T00:32:45.199Z,1010.36
2018-11-05T00:33:54.640Z,1010.28
2018-11-05T00:35:04.604Z,1010.34
2018-11-05T00:36:14.048Z,1010.31
2018-11-05T00:37:23.727Z,1010.28
2018-11-05T00:38:33.150Z,1010.3
2018-11-05T00:39:42.851Z,1010.29
2018-11-05T00:40:52.797Z,1010.29
2018-11-05T00:42:02.479Z,1010.33
2018-11-05T00:43:12.445Z,1010.32
2018-11-05T00:44:22.390Z,1010.33
2018-11-05T00:45:32.106Z,1010.41
2018-11-05T00:46:42.479Z,1010.39
2018-11-05T00:47:52.172Z,1010.35
2018-11-05T00:49:01.856Z,1010.34
2018-11-05T00:50:11.537Z,1010.3
2018-11-05T00:51:21.227Z,1010.27
2018-11-05T00:52:30.415Z,1010.28
2018-11-05T00:53:39.839Z,1010.29
2018-11-05T00:54:49.549Z,1010.28
2018-11-05T00:55:58.722Z,1010.26
2018-11-05T00:57:08.426Z,1010.2
2018-11-05T00:58:18.120Z,1010.17
2018-11-05T00:59:27.857Z,1010.23
2018-11-05T01:00:37.590Z,1010.23
2018-11-05T01:01:47.530Z,1010.29
2018-11-05T01:02:57.476Z,1010.25
2018-11-05T01:04:07.178Z,1010.27
2018-11-05T01:05:17.640Z,1010.25
2018-11-05T01:06:27.328Z,1010.26
2018-11-05T01:07:36.755Z,1010.2
2018-11-05T01:08:46.450Z,1010.21
2018-11-05T01:09:56.400Z,1010.23
2018-11-05T01:11:06.110Z,1010.2
2018-11-05T01:12:15.544Z,1010.19
2018-11-05T01:13:25.243Z,1010.2
2018-11-05T01:14:35.199Z,1010.15
2018-11-05T01:15:44.868Z,1010.15
2018-11-05T01:16:54.830Z,1010.15
2018-11-05T01:18:04.513Z,1010.12
2018-11-05T01:19:14.452Z,1010.08
2018-11-05T01:20:23.875Z,1010.1
2018-11-05T01:21:33.824Z,1010.11
2018-11-05T01:22:43.527Z,1010.08
2018-11-05T01:23:53.465Z,1010.1
2018-11-05T01:25:03.151Z,1010.11
2018-11-05T01:26:12.838Z,1010.09
2018-11-05T01:27:22.797Z,1010.13
2018-11-05T01:28:32.238Z,1010.12
2018-11-05T01:29:42.174Z,1010.1
2018-11-05T01:30:52.134Z,1010.08
2018-11-05T01:32:02.072Z,1010.11
2018-11-05T01:33:11.774Z,1010.11
2018-11-05T01:34:21.467Z,1010.1
2018-11-05T01:35:31.416Z,1010.08
2018-11-05T01:36:40.852Z,1010.11
2018-11-05T01:37:50.279Z,1010.08
2018-11-05T01:39:00.233Z,1010.09
2018-11-05T01:40:09.912Z,1010.12
2018-11-05T01:41:19.346Z,1010.09
2018-11-05T01:42:28.983Z,1010.09
2018-11-05T01:43:38.420Z,1010.1
2018-11-05T01:44:48.114Z,1010.1
2018-11-05T01:45:58.066Z,1010.07
2018-11-05T01:47:08.020Z,1010.06
2018-11-05T01:48:17.448Z,1010.07
2018-11-05T01:49:27.140Z,1010.04
2018-11-05T01:50:37.110Z,1009.99
2018-11-05T01:51:46.798Z,1009.97
2018-11-05T01:52:56.748Z,1009.86
2018-11-05T01:54:06.186Z,1009.87
2018-11-05T01:55:15.863Z,1009.89
2018-11-05T01:56:25.802Z,1009.94
2018-11-05T01:57:35.488Z,1009.94
2018-11-05T01:58:45.432Z,1009.94
2018-11-05T01:59:55.378Z,1009.92
2018-11-05T02:01:05.331Z,1009.89
2018-11-05T02:02:15.025Z,1009.86
2018-11-05T02:03:24.981Z,1009.86
2018-11-05T02:04:34.414Z,1009.83
2018-11-05T02:05:43.855Z,1009.79
2018-11-05T02:06:53.795Z,1009.78
2018-11-05T02:08:03.742Z,1009.8
2018-11-05T02:09:13.434Z,1009.74
2018-11-05T02:10:23.475Z,1009.83
2018-11-05T02:11:33.858Z,1009.82
2018-11-05T02:12:43.544Z,1009.88
2018-11-05T02:13:53.505Z,1009.82
2018-11-05T02:15:03.487Z,1009.83
2018-11-05T02:16:13.133Z,1009.82
2018-11-05T02:17:23.131Z,1009.86
2018-11-05T02:18:32.816Z,1009.81
2018-11-05T02:19:42.759Z,1009.77
2018-11-05T02:20:52.449Z,1009.74
2018-11-05T02:22:02.405Z,1009.72
2018-11-05T02:23:12.368Z,1009.68
2018-11-05T02:24:22.301Z,1009.58
2018-11-05T02:25:31.984Z,1009.58
2018-11-05T02:26:41.410Z,1009.53
2018-11-05T02:27:51.145Z,1009.45
2018-11-05T02:29:01.089Z,1009.56
2018-11-05T02:30:11.057Z,1009.58
2018-11-05T02:31:20.771Z,1009.51
2018-11-05T02:32:30.712Z,1009.56
2018-11-05T02:33:40.572Z,1009.58
2018-11-05T02:34:50.539Z,1009.62
2018-11-05T02:36:00.261Z,1009.64
2018-11-05T02:37:09.952Z,1009.61
2018-11-05T02:38:19.909Z,1009.63
2018-11-05T02:39:29.858Z,1009.64
2018-11-05T02:40:39.547Z,1009.65
2018-11-05T02:41:49.237Z,1009.65
2018-11-05T02:42:58.942Z,1009.74
2018-11-05T02:44:08.653Z,1009.63
2018-11-05T02:45:18.351Z,1009.64
2018-11-05T02:46:28.302Z,1009.64
2018-11-05T02:47:38.251Z,1009.64
2018-11-05T02:48:47.691Z,1009.69
2018-11-05T02:49:57.636Z,1009.71
2018-11-05T02:51:07.328Z,1009.74
2018-11-05T02:52:17.285Z,1009.77
2018-11-05T02:53:26.727Z,1009.71
2018-11-05T02:54:36.426Z,1009.72
2018-11-05T02:55:46.109Z,1009.71
2018-11-05T02:56:55.814Z,1009.74
2018-11-05T02:58:05.245Z,1009.78
2018-11-05T02:59:14.929Z,1009.76
2018-11-05T03:00:24.878Z,1009.7
2018-11-05T03:01:34.572Z,1009.7
2018-11-05T03:02:44.020Z,1009.75
2018-11-05T03:03:53.716Z,1009.76
2018-11-05T03:05:03.681Z,1009.78
2018-11-05T03:06:13.628Z,1009.79
2018-11-05T03:07:23.593Z,1009.78
2018-11-05T03:08:33.531Z,1009.81
2018-11-05T03:09:43.495Z,1009.78
2018-11-05T03:10:53.205Z,1009.84
2018-11-05T03:12:02.639Z,1009.78
2018-11-05T03:13:12.332Z,1009.83
2018-11-05T03:14:22.279Z,1009.84
2018-11-05T03:15:32.242Z,1009.85
2018-11-05T03:16:41.673Z,1009.85
2018-11-05T03:17:51.111Z,1009.86
2018-11-05T03:19:00.815Z,1009.84
2018-11-05T03:20:10.770Z,1009.84
2018-11-05T03:21:19.958Z,1009.8
2018-11-05T03:22:29.902Z,1009.8
2018-11-05T03:23:39.337Z,1009.78
2018-11-05T03:24:49.282Z,1009.78
2018-11-05T03:25:59.225Z,1009.76
2018-11-05T03:27:08.932Z,1009.81
2018-11-05T03:28:18.619Z,1009.79
2018-11-05T03:29:28.354Z,1009.82
2018-11-05T03:30:38.299Z,1009.81
2018-11-05T03:31:48.015Z,1009.78
2018-11-05T03:32:57.989Z,1009.79
2018-11-05T03:34:07.946Z,1009.78
2018-11-05T03:35:17.634Z,1009.8
2018-11-05T03:36:28.031Z,1009.77
2018-11-05T03:37:37.988Z,1009.8
2018-11-05T03:38:47.685Z,1009.79
2018-11-05T03:39:57.375Z,1009.76
2018-11-05T03:41:07.119Z,1009.74
2018-11-05T03:42:16.550Z,1009.79
2018-11-05T03:43:26.238Z,1009.82
2018-11-05T03:44:35.988Z,1009.81
2018-11-05T03:45:45.161Z,1009.84
2018-11-05T03:46:55.108Z,1009.79
2018-11-05T03:48:05.052Z,1009.79
2018-11-05T03:49:14.723Z,1009.75
2018-11-05T03:50:24.171Z,1009.79
2018-11-05T03:51:34.123Z,1009.78
2018-11-05T03:52:43.801Z,1009.74
2018-11-05T03:53:53.522Z,1009.69
2018-11-05T03:55:03.197Z,1009.66
2018-11-05T03:56:12.983Z,1009.67
2018-11-05T03:57:23.784Z,1009.57
2018-11-05T03:58:33.472Z,1009.5
2018-11-05T03:59:43.452Z,1009.52
2018-11-05T04:00:52.892Z,1009.56
2018-11-05T04:02:02.849Z,1009.53
2018-11-05T04:03:12.858Z,1009.55
2018-11-05T04:04:22.648Z,1009.55
2018-11-05T04:05:32.621Z,1009.49
2018-11-05T04:06:42.581Z,1009.43
2018-11-05T04:07:52.272Z,1009.41
2018-11-05T04:09:02.218Z,1009.36
2018-11-05T04:10:12.167Z,1009.44
2018-11-05T04:11:21.847Z,1009.48
2018-11-05T04:12:31.547Z,1009.39
2018-11-05T04:13:41.256Z,1009.39
2018-11-05T04:14:50.429Z,1009.34
2018-11-05T04:16:00.212Z,1009.3
2018-11-05T04:17:10.779Z,1009.3
2018-11-05T04:18:20.212Z,1009.28
2018-11-05T04:19:29.910Z,1009.28
2018-11-05T04:20:39.865Z,1009.31
2018-11-05T04:21:49.575Z,1009.27
2018-11-05T04:22:59.526Z,1009.25
2018-11-05T04:24:09.223Z,1009.23
2018-11-05T04:25:18.929Z,1009.31
2018-11-05T04:26:28.606Z,1009.22
2018-11-05T04:27:37.799Z,1009.25
2018-11-05T04:28:48.380Z,1009.27
2018-11-05T04:29:58.074Z,1009.16
2018-11-05T04:31:07.244Z,1009.19
2018-11-05T04:32:16.929Z,1009.2
2018-11-05T04:33:26.901Z,1009.18
2018-11-05T04:34:36.504Z,1009.24
2018-11-05T04:35:46.455Z,1009.23
2018-11-05T04:36:56.401Z,1009.21
2018-11-05T04:38:06.353Z,1009.19
2018-11-05T04:39:16.041Z,1009.18
2018-11-05T04:40:25.758Z,1009.11
2018-11-05T04:41:35.779Z,1009.14
2018-11-05T04:42:45.725Z,1009.14
2018-11-05T04:43:55.682Z,1009.1
2018-11-05T04:45:05.363Z,1009.09
2018-11-05T04:46:15.054Z,1009.08
2018-11-05T04:47:24.760Z,1009.06
2018-11-05T04:48:34.721Z,1009.04
2018-11-05T04:49:44.419Z,1009.05
2018-11-05T04:50:53.848Z,1009.02
2018-11-05T04:52:03.807Z,1009.05
2018-11-05T04:53:13.256Z,1009.03
2018-11-05T04:54:23.226Z,1009.01
2018-11-05T04:55:32.909Z,1008.96
2018-11-05T04:56:42.606Z,1009
2018-11-05T04:57:52.283Z,1008.96
2018-11-05T04:59:02.232Z,1008.99
2018-11-05T05:00:11.918Z,1009.01
2018-11-05T05:01:21.606Z,1009
2018-11-05T05:02:31.292Z,1009.03
2018-11-05T05:03:41.251Z,1009.02
2018-11-05T05:04:50.948Z,1009.03
2018-11-05T05:06:00.896Z,1009.04
2018-11-05T05:07:10.614Z,1009.1
2018-11-05T05:08:20.320Z,1009.07
2018-11-05T05:09:30.269Z,1009.12
2018-11-05T05:10:39.962Z,1009.19
2018-11-05T05:11:49.645Z,1009.23
2018-11-05T05:12:59.330Z,1009.27
2018-11-05T05:14:09.043Z,1009.21
2018-11-05T05:15:18.729Z,1009.24
2018-11-05T05:16:28.431Z,1009.28
2018-11-05T05:17:38.379Z,1009.33
2018-11-05T05:18:48.074Z,1009.34
2018-11-05T05:19:57.764Z,1009.34
2018-11-05T05:21:07.734Z,1009.35
2018-11-05T05:22:17.742Z,1009.25
2018-11-05T05:23:27.930Z,1009.22
2018-11-05T05:24:37.874Z,1009.23
2018-11-05T05:25:47.572Z,1009.22
2018-11-05T05:26:57.520Z,1009.16
2018-11-05T05:28:07.219Z,1009.17
2018-11-05T05:29:15.888Z,1009.14
2018-11-05T05:30:25.585Z,1009.08
2018-11-05T05:31:35.562Z,1009.15
2018-11-05T05:32:45.266Z,1009.1
2018-11-05T05:33:54.826Z,1009.07
2018-11-05T05:35:04.774Z,1009.1
2018-11-05T05:36:13.946Z,1009.04
2018-11-05T05:37:23.905Z,1009.01
2018-11-05T05:38:33.861Z,1008.99
2018-11-05T05:39:43.825Z,1008.96
2018-11-05T05:40:53.404Z,1009.07
2018-11-05T05:42:04.142Z,1009.06
2018-11-05T05:43:14.096Z,1009.04
2018-11-05T05:44:24.077Z,1009.07
2018-11-05T05:45:33.777Z,1009.04
2018-11-05T05:46:43.223Z,1009.03
2018-11-05T05:47:52.908Z,1009.06
2018-11-05T05:49:02.883Z,1009.04
2018-11-05T05:50:13.021Z,1009.02
2018-11-05T05:51:23.611Z,1009.01
2018-11-05T05:52:33.566Z,1009.05
2018-11-05T05:53:43.291Z,1008.97
2018-11-05T05:54:53.054Z,1009.01
2018-11-05T05:56:03.048Z,1009.01
2018-11-05T05:57:12.751Z,1009
2018-11-05T05:58:22.703Z,1008.99
2018-11-05T05:59:32.145Z,1008.95
2018-11-05T06:00:42.113Z,1008.93
2018-11-05T06:01:51.299Z,1008.95
2018-11-05T06:03:00.996Z,1008.98
2018-11-05T06:04:10.974Z,1009.01
2018-11-05T06:05:20.677Z,1009.01
2018-11-05T06:06:30.712Z,1009.08
2018-11-05T06:07:39.727Z,1009.05
2018-11-05T06:08:49.685Z,1009.09
2018-11-05T06:09:59.383Z,1009.11
2018-11-05T06:11:09.068Z,1009.08
2018-11-05T06:12:18.501Z,1009.07
2018-11-05T06:13:28.452Z,1009.07
2018-11-05T06:14:37.884Z,1009.08
2018-11-05T06:15:47.397Z,1009.07
2018-11-05T06:16:56.639Z,1009.09
2018-11-05T06:18:06.370Z,1009.09
2018-11-05T06:19:16.324Z,1009.12
2018-11-05T06:20:26.285Z,1009.12
2018-11-05T06:21:35.474Z,1009.15
2018-11-05T06:22:45.659Z,1009.17
2018-11-05T06:23:54.834Z,1009.17
2018-11-05T06:25:04.781Z,1009.14
2018-11-05T06:26:14.485Z,1009.17
2018-11-05T06:27:24.495Z,1009.15
2018-11-05T06:28:34.559Z,1009.18
2018-11-05T06:29:44.484Z,1009.27
2018-11-05T06:30:54.432Z,1009.3
2018-11-05T06:32:03.881Z,1009.33
2018-11-05T06:33:13.563Z,1009.34
2018-11-05T06:34:24.541Z,1009.4
2018-11-05T06:35:33.999Z,1009.41
2018-11-05T06:36:43.952Z,1009.43
2018-11-05T06:37:53.921Z,1009.46
2018-11-05T06:39:03.629Z,1009.44
2018-11-05T06:40:13.588Z,1009.42
2018-11-05T06:41:23.664Z,1009.41
2018-11-05T06:42:33.934Z,1009.41
2018-11-05T06:43:43.888Z,1009.42
2018-11-05T06:44:53.597Z,1009.41
2018-11-05T06:46:03.996Z,1009.42
2018-11-05T06:47:13.946Z,1009.42
2018-11-05T06:48:23.379Z,1009.42
2018-11-05T06:49:32.817Z,1009.39
2018-11-05T06:50:42.520Z,1009.4
2018-11-05T06:51:52.219Z,1009.35
2018-11-05T06:53:02.049Z,1009.32
2018-11-05T06:54:11.782Z,1009.3
2018-11-05T06:55:21.490Z,1009.29
2018-11-05T06:56:31.175Z,1009.29
2018-11-05T06:57:40.947Z,1009.27
2018-11-05T06:58:52.081Z,1009.25
2018-11-05T07:00:02.020Z,1009.28
2018-11-05T07:01:11.473Z,1009.28
2018-11-05T07:02:20.948Z,1009.26
2018-11-05T07:03:31.195Z,1009.26
2018-11-05T07:04:40.870Z,1009.32
2018-11-05T07:05:50.646Z,1009.27
2018-11-05T07:07:01.225Z,1009.21
2018-11-05T07:08:11.188Z,1009.18
2018-11-05T07:09:21.133Z,1009.21
2018-11-05T07:10:30.830Z,1009.28
2018-11-05T07:11:40.549Z,1009.29
2018-11-05T07:12:50.528Z,1009.32
2018-11-05T07:14:00.488Z,1009.35
2018-11-05T07:15:10.211Z,1009.39
2018-11-05T07:16:19.928Z,1009.42
2018-11-05T07:17:29.630Z,1009.43
2018-11-05T07:18:39.632Z,1009.44
2018-11-05T07:19:50.485Z,1009.41
2018-11-05T07:21:00.428Z,1009.49
2018-11-05T07:22:10.406Z,1009.54
2018-11-05T07:23:19.868Z,1009.52
2018-11-05T07:24:29.612Z,1009.58
2018-11-05T07:25:39.559Z,1009.55
2018-11-05T07:26:49.259Z,1009.49
2018-11-05T07:27:58.701Z,1009.51
2018-11-05T07:29:08.133Z,1009.5
2018-11-05T07:30:17.374Z,1009.53
2018-11-05T07:31:26.847Z,1009.52
2018-11-05T07:32:36.850Z,1009.48
2018-11-05T07:33:46.961Z,1009.4
2018-11-05T07:34:56.555Z,1009.4
2018-11-05T07:36:06.334Z,1009.4
2018-11-05T07:37:16.058Z,1009.47
2018-11-05T07:38:25.516Z,1009.44
2018-11-05T07:39:35.779Z,1009.44
2018-11-05T07:40:44.931Z,1009.46
2018-11-05T07:41:54.637Z,1009.37
2018-11-05T07:43:04.354Z,1009.37
2018-11-05T07:44:13.895Z,1009.37
2018-11-05T07:45:23.596Z,1009.42
2018-11-05T07:46:33.321Z,1009.38
2018-11-05T07:47:43.310Z,1009.41
2018-11-05T07:48:53.055Z,1009.44
2018-11-05T07:50:02.836Z,1009.42
2018-11-05T07:51:12.937Z,1009.42
2018-11-05T07:52:22.644Z,1009.39
2018-11-05T07:53:32.094Z,1009.42
2018-11-05T07:54:41.802Z,1009.36
2018-11-05T07:55:51.231Z,1009.32
2018-11-05T07:57:01.101Z,1009.33
2018-11-05T07:58:10.804Z,1009.32
2018-11-05T07:59:20.232Z,1009.31
2018-11-05T08:00:30.169Z,1009.3
2018-11-05T08:01:39.888Z,1009.24
2018-11-05T08:02:49.667Z,1009.23
2018-11-05T08:03:59.632Z,1009.23
2018-11-05T08:05:09.868Z,1009.22
2018-11-05T08:06:19.329Z,1009.29
2018-11-05T08:07:29.040Z,1009.3
2018-11-05T08:08:38.492Z,1009.32
2018-11-05T08:09:48.200Z,1009.33
2018-11-05T08:10:57.904Z,1009.34
2018-11-05T08:12:07.598Z,1009.33
2018-11-05T08:13:17.045Z,1009.34
2018-11-05T08:14:27.028Z,1009.37
2018-11-05T08:15:37.045Z,1009.33
2018-11-05T08:16:47.015Z,1009.37
2018-11-05T08:17:56.713Z,1009.36
2018-11-05T08:19:06.697Z,1009.33
2018-11-05T08:20:16.680Z,1009.37
2018-11-05T08:21:26.660Z,1009.35
2018-11-05T08:22:36.108Z,1009.29
2018-11-05T08:23:45.586Z,1009.32
2018-11-05T08:24:55.309Z,1009.31
2018-11-05T08:26:05.011Z,1009.33
2018-11-05T08:27:14.674Z,1009.36
2018-11-05T08:28:24.415Z,1009.38
2018-11-05T08:29:34.400Z,1009.32
2018-11-05T08:30:44.080Z,1009.34
2018-11-05T08:31:54.069Z,1009.28
2018-11-05T08:33:04.107Z,1009.28
2018-11-05T08:34:13.830Z,1009.31
2018-11-05T08:35:23.668Z,1009.22
2018-11-05T08:36:33.630Z,1009.2
2018-11-05T08:37:42.838Z,1009.18
2018-11-05T08:38:52.794Z,1009.16
2018-11-05T08:40:02.792Z,1009.13
2018-11-05T08:41:12.719Z,1009.19
2018-11-05T08:42:22.688Z,1009.16
2018-11-05T08:43:32.156Z,1009.15
2018-11-05T08:44:42.150Z,1009.13
2018-11-05T08:45:51.871Z,1009.13
2018-11-05T08:47:01.951Z,1009.13
2018-11-05T08:48:11.475Z,1009.14
2018-11-05T08:49:21.436Z,1009.16
2018-11-05T08:50:30.973Z,1009.17
2018-11-05T08:51:40.597Z,1009.16
2018-11-05T08:52:52.207Z,1009.17
2018-11-05T08:54:02.269Z,1009.18
2018-11-05T08:55:12.067Z,1009.18
2018-11-05T08:56:21.770Z,1009.23
2018-11-05T08:57:31.530Z,1009.27
2018-11-05T08:58:40.573Z,1009.28
2018-11-05T08:59:50.293Z,1009.28
2018-11-05T09:00:59.522Z,1009.32
2018-11-05T09:02:09.964Z,1009.35
2018-11-05T09:03:19.141Z,1009.32
2018-11-05T09:04:29.091Z,1009.3
2018-11-05T09:05:39.204Z,1009.28
2018-11-05T09:06:48.378Z,1009.3
2018-11-05T09:07:58.065Z,1009.3
2018-11-05T09:09:08.148Z,1009.27
2018-11-05T09:10:18.344Z,1009.26
2018-11-05T09:11:29.657Z,1009.21
2018-11-05T09:12:42.301Z,1009.24
2018-11-05T09:13:52.037Z,1009.21
2018-11-05T09:15:01.492Z,1009.16
2018-11-05T09:16:11.307Z,1009.19
2018-11-05T09:17:22.120Z,1009.25
2018-11-05T09:18:31.946Z,1009.25
2018-11-05T09:19:41.880Z,1009.26
2018-11-05T09:20:51.157Z,1009.27
2018-11-05T09:22:01.608Z,1009.25
2018-11-05T09:23:11.708Z,1009.17
2018-11-05T09:24:21.463Z,1009.2
2018-11-05T09:25:31.176Z,1009.17
2018-11-05T09:26:40.646Z,1009.19
2018-11-05T09:27:50.147Z,1009.13
2018-11-05T09:28:59.480Z,1009.19
2018-11-05T09:30:08.949Z,1009.13
2018-11-05T09:31:18.941Z,1009.16
2018-11-05T09:32:28.902Z,1009.17
2018-11-05T09:33:38.119Z,1009.18
2018-11-05T09:34:47.832Z,1009.27
2018-11-05T09:35:57.543Z,1009.24
2018-11-05T09:37:07.238Z,1009.24
2018-11-05T09:38:16.746Z,1009.19
2018-11-05T09:39:26.183Z,1009.15
2018-11-05T09:40:36.174Z,1009.06
2018-11-05T09:41:45.889Z,1009.05
2018-11-05T09:42:55.689Z,1009.1
2018-11-05T09:44:06.086Z,1009.08
2018-11-05T09:45:15.778Z,1009.1
2018-11-05T09:46:25.483Z,1009.08
2018-11-05T09:47:35.489Z,1009.06
2018-11-05T09:48:45.451Z,1009.03
2018-11-05T09:49:55.178Z,1008.99
2018-11-05T09:51:04.894Z,1008.98
2018-11-05T09:52:14.670Z,1008.98
2018-11-05T09:53:24.502Z,1009
2018-11-05T09:54:34.458Z,1009.03
2018-11-05T09:55:44.178Z,1009.02
2018-11-05T09:56:53.657Z,1009.03
2018-11-05T09:58:03.596Z,1008.98
2018-11-05T09:59:13.286Z,1008.97
2018-11-05T10:00:22.996Z,1008.99
2018-11-05T10:01:32.724Z,1008.97
2018-11-05T10:02:42.483Z,1009.01
2018-11-05T10:03:53.561Z,1009
2018-11-05T10:05:03.955Z,1008.98
2018-11-05T10:06:14.351Z,1008.89
2018-11-05T10:07:24.324Z,1008.97
2018-11-05T10:08:33.781Z,1008.94
2018-11-05T10:09:43.804Z,1008.89
2018-11-05T10:10:54.533Z,1008.85
2018-11-05T10:12:04.826Z,1008.86
2018-11-05T10:13:14.546Z,1008.88
2018-11-05T10:14:23.985Z,1008.92
2018-11-05T10:15:33.939Z,1008.89
2018-11-05T10:16:43.647Z,1008.89
2018-11-05T10:17:53.623Z,1008.9
2018-11-05T10:19:03.329Z,1008.84
2018-11-05T10:20:13.027Z,1008.84
2018-11-05T10:21:22.705Z,1008.83
2018-11-05T10:22:32.403Z,1008.87
2018-11-05T10:23:42.351Z,1008.83
2018-11-05T10:24:51.955Z,1008.76
2018-11-05T10:26:02.656Z,1008.83
2018-11-05T10:27:12.572Z,1008.85
2018-11-05T10:28:22.298Z,1008.73
2018-11-05T10:29:31.748Z,1008.76
2018-11-05T10:30:40.935Z,1008.82
2018-11-05T10:31:50.893Z,1008.9
2018-11-05T10:33:00.888Z,1008.78
2018-11-05T10:34:11.403Z,1008.77
2018-11-05T10:35:21.100Z,1008.76
2018-11-05T10:36:30.556Z,1008.78
2018-11-05T10:37:40.251Z,1008.69
2018-11-05T10:38:50.234Z,1008.74
2018-11-05T10:39:59.169Z,1008.74
2018-11-05T10:41:09.393Z,1008.73
2018-11-05T10:42:19.357Z,1008.74
2018-11-05T10:43:29.060Z,1008.68
2018-11-05T10:44:39.018Z,1008.6
2018-11-05T10:45:48.730Z,1008.55
2018-11-05T10:46:58.729Z,1008.55
2018-11-05T10:48:08.422Z,1008.48
2018-11-05T10:49:18.158Z,1008.49
2018-11-05T10:50:28.238Z,1008.45
2018-11-05T10:51:38.512Z,1008.45
2018-11-05T10:52:48.531Z,1008.52
2018-11-05T10:53:58.512Z,1008.47
2018-11-05T10:55:07.963Z,1008.39
2018-11-05T10:56:17.658Z,1008.38
2018-11-05T10:57:27.614Z,1008.38
2018-11-05T10:58:37.675Z,1008.37
2018-11-05T10:59:47.630Z,1008.37
2018-11-05T11:00:57.332Z,1008.34
2018-11-05T11:02:07.024Z,1008.35
2018-11-05T11:03:16.733Z,1008.34
2018-11-05T11:04:25.987Z,1008.32
2018-11-05T11:05:36.074Z,1008.35
2018-11-05T11:06:45.763Z,1008.36
2018-11-05T11:07:55.470Z,1008.36
2018-11-05T11:09:05.428Z,1008.41
2018-11-05T11:10:15.375Z,1008.31
2018-11-05T11:11:25.336Z,1008.3
2018-11-05T11:12:34.815Z,1008.3
2018-11-05T11:13:44.758Z,1008.29
2018-11-05T11:14:54.511Z,1008.31
2018-11-05T11:16:03.766Z,1008.26
2018-11-05T11:17:13.217Z,1008.25
2018-11-05T11:18:23.172Z,1008.25
2018-11-05T11:19:32.879Z,1008.29
2018-11-05T11:20:42.579Z,1008.27
2018-11-05T11:21:52.310Z,1008.24
2018-11-05T11:23:02.676Z,1008.18
2018-11-05T11:24:12.427Z,1008.21
2018-11-05T11:25:22.179Z,1008.13
2018-11-05T11:26:32.154Z,1008.12
2018-11-05T11:27:42.171Z,1008.09
2018-11-05T11:28:52.452Z,1008.09
2018-11-05T11:30:03.259Z,1008.11
2018-11-05T11:31:12.719Z,1008.08
2018-11-05T11:32:22.179Z,1008.07
2018-11-05T11:33:32.100Z,1008.06
2018-11-05T11:34:42.064Z,1008.04
2018-11-05T11:35:52.060Z,1007.99
2018-11-05T11:37:01.892Z,1007.96
2018-11-05T11:38:11.985Z,1007.96
2018-11-05T11:39:21.177Z,1007.93
2018-11-05T11:40:31.147Z,1007.9
2018-11-05T11:41:41.171Z,1007.91
2018-11-05T11:42:50.616Z,1007.88
2018-11-05T11:44:00.612Z,1007.81
2018-11-05T11:45:09.927Z,1007.77
2018-11-05T11:46:19.898Z,1007.77
2018-11-05T11:47:29.591Z,1007.71
2018-11-05T11:48:39.561Z,1007.71
2018-11-05T11:49:48.754Z,1007.72
2018-11-05T11:50:58.447Z,1007.69
2018-11-05T11:52:08.410Z,1007.66
2018-11-05T11:53:18.244Z,1007.7
2018-11-05T11:54:28.215Z,1007.68
2018-11-05T11:55:37.970Z,1007.68
2018-11-05T11:56:47.453Z,1007.7
2018-11-05T11:57:57.186Z,1007.67
2018-11-05T11:59:06.916Z,1007.61
2018-11-05T12:00:16.847Z,1007.55
2018-11-05T12:01:26.990Z,1007.55
2018-11-05T12:02:36.450Z,1007.55
2018-11-05T12:03:46.431Z,1007.54
2018-11-05T12:04:55.688Z,1007.55
2018-11-05T12:06:06.378Z,1007.56
2018-11-05T12:07:16.082Z,1007.53
2018-11-05T12:08:26.052Z,1007.5
2018-11-05T12:09:36.050Z,1007.52
2018-11-05T12:10:45.740Z,1007.52
2018-11-05T12:11:55.441Z,1007.52
2018-11-05T12:13:05.173Z,1007.47
2018-11-05T12:14:14.700Z,1007.48
2018-11-05T12:15:24.759Z,1007.44
2018-11-05T12:16:34.204Z,1007.38
2018-11-05T12:17:43.919Z,1007.45
2018-11-05T12:18:53.373Z,1007.48
2018-11-05T12:20:02.574Z,1007.49
2018-11-05T12:21:12.547Z,1007.46
2018-11-05T12:22:22.496Z,1007.46
2018-11-05T12:23:32.194Z,1007.39
2018-11-05T12:24:41.960Z,1007.37
2018-11-05T12:25:52.184Z,1007.38
2018-11-05T12:27:01.372Z,1007.35
2018-11-05T12:28:11.345Z,1007.28
2018-11-05T12:29:21.065Z,1007.3
2018-11-05T12:30:30.822Z,1007.29
2018-11-05T12:31:40.524Z,1007.29
2018-11-05T12:32:50.242Z,1007.29
2018-11-05T12:34:00.220Z,1007.32
2018-11-05T12:35:09.920Z,1007.3
2018-11-05T12:36:19.636Z,1007.35
2018-11-05T12:37:29.340Z,1007.37
2018-11-05T12:38:39.112Z,1007.4
2018-11-05T12:39:49.533Z,1007.33
2018-11-05T12:40:59.512Z,1007.3
2018-11-05T12:42:09.554Z,1007.23
2018-11-05T12:43:19.522Z,1007.19
2018-11-05T12:44:28.736Z,1007.17
2018-11-05T12:45:38.950Z,1007.2
2018-11-05T12:46:48.669Z,1007.21
2018-11-05T12:47:58.393Z,1007.24
2018-11-05T12:49:07.591Z,1007.25
2018-11-05T12:50:17.800Z,1007.21
2018-11-05T12:51:27.921Z,1007.22
2018-11-05T12:52:37.897Z,1007.18
2018-11-05T12:53:47.882Z,1007.17
2018-11-05T12:54:57.875Z,1007.09
2018-11-05T12:56:07.324Z,1007.09
2018-11-05T12:57:17.284Z,1007.12
2018-11-05T12:58:26.742Z,1007.13
2018-11-05T12:59:36.714Z,1007.09
2018-11-05T13:00:46.681Z,1007.06
2018-11-05T13:01:56.802Z,1007.1
2018-11-05T13:03:06.741Z,1007.06
2018-11-05T13:04:16.582Z,1007.03
2018-11-05T13:05:26.677Z,1006.97
2018-11-05T13:06:36.138Z,1007
2018-11-05T13:07:45.939Z,1007.01
2018-11-05T13:08:55.920Z,1006.93
2018-11-05T13:10:05.624Z,1006.9
2018-11-05T13:11:15.612Z,1006.87
2018-11-05T13:12:25.330Z,1006.83
2018-11-05T13:13:34.756Z,1006.83
2018-11-05T13:14:44.705Z,1006.86
2018-11-05T13:15:53.875Z,1006.8
2018-11-05T13:17:03.048Z,1006.89
2018-11-05T13:18:12.772Z,1006.93
2018-11-05T13:19:22.494Z,1006.92
2018-11-05T13:20:32.204Z,1006.89
2018-11-05T13:21:41.911Z,1006.87
2018-11-05T13:22:51.620Z,1006.85
2018-11-05T13:24:01.425Z,1006.84
2018-11-05T13:25:11.569Z,1006.83
2018-11-05T13:26:21.545Z,1006.87
2018-11-05T13:27:31.250Z,1006.78
2018-11-05T13:28:40.964Z,1006.77
2018-11-05T13:29:50.182Z,1006.79
2018-11-05T13:30:59.936Z,1006.78
2018-11-05T13:32:09.637Z,1006.78
2018-11-05T13:33:19.370Z,1006.75
2018-11-05T13:34:28.548Z,1006.79
2018-11-05T13:35:38.515Z,1006.75
2018-11-05T13:36:48.722Z,1006.75
2018-11-05T13:37:59.689Z,1006.77
2018-11-05T13:39:14.080Z,1006.74
2018-11-05T13:40:23.790Z,1006.79
2018-11-05T13:41:32.973Z,1006.76
2018-11-05T13:42:42.678Z,1006.79
2018-11-05T13:43:52.385Z,1006.77
2018-11-05T13:45:01.858Z,1006.72
2018-11-05T13:46:12.402Z,1006.72
2018-11-05T13:47:25.279Z,1006.74
2018-11-05T13:48:39.163Z,1006.7
2018-11-05T13:49:53.959Z,1006.71
2018-11-05T13:51:05.125Z,1006.73
2018-11-05T13:52:15.096Z,1006.76
2018-11-05T13:53:25.785Z,1006.75
2018-11-05T13:54:35.938Z,1006.7
2018-11-05T13:55:47.966Z,1006.77
2018-11-05T13:56:57.931Z,1006.74
2018-11-05T13:58:07.968Z,1006.71
2018-11-05T13:59:17.762Z,1006.71
2018-11-05T14:00:27.734Z,1006.7
2018-11-05T14:01:37.714Z,1006.68
2018-11-05T14:02:47.470Z,1006.65
2018-11-05T14:03:57.186Z,1006.68
2018-11-05T14:05:07.174Z,1006.67
2018-11-05T14:06:16.349Z,1006.71
2018-11-05T14:07:26.048Z,1006.72